Bath, North Carolina
Current Conditions -  °F | °C
As of 9:35 PM on Tuesday 21 Oct 2014 (Local Time) from KOCW Reporting Station
Overcast Overcast  
Wind Chill: 60°   Ceiling: 11000
Heat Index: 60°   Visibility: 10mi
Dew Point: 55°   Wind: 0mph
Humidity: 85%   Direction: NA
Pressure: 29.86"   Gusts: NA
Location:  35.48°N, 76.81°W
Report Text: KOCW 220135Z AUTO 00000KT 10SM SCT080 OVC110 16/13 A2986 RMK AO2 T01560130
Loading
Personal Weather Stations






























Interactive Weather Map
Tropical Storm Tracking
New forecast layout! Learn more

10-Day Weather Forecast

Advertisements
Track Severe Weather on mobile